createdAt,value
2018-02-11T00:01:40.782Z,2.90
2018-02-11T00:04:08.351Z,2.90
2018-02-11T00:06:35.327Z,2.90
2018-02-11T00:09:02.479Z,2.80
2018-02-11T00:11:29.883Z,2.80
2018-02-11T00:13:57.308Z,2.70
2018-02-11T00:16:24.792Z,2.70
2018-02-11T00:18:52.228Z,2.70
2018-02-11T00:21:19.719Z,2.60
2018-02-11T00:23:47.135Z,2.60
2018-02-11T00:26:14.568Z,2.60
2018-02-11T00:28:41.988Z,2.60
2018-02-11T00:31:09.527Z,2.60
2018-02-11T00:33:36.948Z,2.60
2018-02-11T00:36:04.448Z,2.50
2018-02-11T00:38:31.899Z,2.50
2018-02-11T00:40:59.335Z,2.50
2018-02-11T00:43:26.765Z,2.50
2018-02-11T00:45:54.191Z,2.50
2018-02-11T00:48:21.618Z,2.40
2018-02-11T00:50:49.092Z,2.40
2018-02-11T00:53:16.516Z,2.40
2018-02-11T00:55:44.096Z,2.30
2018-02-11T00:58:11.532Z,2.30
2018-02-11T01:00:39.012Z,2.30
2018-02-11T01:03:06.446Z,2.30
2018-02-11T01:05:33.872Z,2.30
2018-02-11T01:08:01.308Z,2.30
2018-02-11T01:10:29.520Z,2.20
2018-02-11T01:12:56.947Z,2.20
2018-02-11T01:15:25.187Z,2.20
2018-02-11T01:17:52.667Z,2.20
2018-02-11T01:20:20.106Z,2.20
2018-02-11T01:22:47.655Z,2.20
2018-02-11T01:25:15.288Z,2.20
2018-02-11T01:27:42.871Z,2.20
2018-02-11T01:30:10.299Z,2.20
2018-02-11T01:32:37.791Z,2.20
2018-02-11T01:35:05.219Z,2.20
2018-02-11T01:37:32.647Z,2.20
2018-02-11T01:40:00.080Z,2.20
2018-02-11T01:42:27.631Z,2.20
2018-02-11T01:44:55.372Z,2.20
2018-02-11T01:47:22.828Z,2.20
2018-02-11T01:52:47.744Z,2.10
2018-02-11T01:55:15.288Z,2.10
2018-02-11T01:57:42.767Z,2.10
2018-02-11T02:00:10.200Z,2.20
2018-02-11T02:02:37.631Z,2.20
2018-02-11T02:05:04.616Z,2.20
2018-02-11T02:07:32.028Z,2.30
2018-02-11T02:09:59.455Z,2.30
2018-02-11T02:12:27.151Z,2.40
2018-02-11T02:14:54.649Z,2.40
2018-02-11T02:17:22.066Z,2.40
2018-02-11T02:19:49.517Z,2.40
2018-02-11T02:22:17.015Z,2.40
2018-02-11T02:24:44.466Z,2.40
2018-02-11T02:27:11.885Z,2.30
2018-02-11T02:29:39.381Z,2.40
2018-02-11T02:32:06.803Z,2.40
2018-02-11T02:34:34.292Z,2.40
2018-02-11T02:37:01.715Z,2.40
2018-02-11T02:39:29.218Z,2.30
2018-02-11T02:41:56.841Z,2.40
2018-02-11T02:44:24.262Z,2.40
2018-02-11T02:46:51.876Z,2.40
2018-02-11T02:49:19.332Z,2.40
2018-02-11T02:51:46.792Z,2.40
2018-02-11T02:54:14.231Z,2.40
2018-02-11T02:56:41.646Z,2.40
2018-02-11T02:59:09.071Z,2.40
2018-02-11T03:01:36.619Z,2.40
2018-02-11T03:04:04.058Z,2.40
2018-02-11T03:06:31.535Z,2.30
2018-02-11T03:08:58.991Z,2.30
2018-02-11T03:11:26.456Z,2.30
2018-02-11T03:13:54.223Z,2.30
2018-02-11T03:16:21.651Z,2.30
2018-02-11T03:18:49.119Z,2.40
2018-02-11T03:21:16.553Z,2.40
2018-02-11T03:23:44.032Z,2.40
2018-02-11T03:26:11.465Z,2.40
2018-02-11T03:28:38.955Z,2.40
2018-02-11T03:31:06.396Z,2.40
2018-02-11T03:33:33.811Z,2.40
2018-02-11T03:36:01.315Z,2.30
2018-02-11T03:38:28.734Z,2.40
2018-02-11T03:40:56.170Z,2.40
2018-02-11T03:43:24.602Z,2.40
2018-02-11T03:45:52.032Z,2.40
2018-02-11T03:48:19.523Z,2.40
2018-02-11T03:50:46.959Z,2.40
2018-02-11T03:53:14.391Z,2.40
2018-02-11T03:55:41.816Z,2.40
2018-02-11T03:58:10.008Z,2.40
2018-02-11T04:00:37.600Z,2.40
2018-02-11T04:03:05.024Z,2.40
2018-02-11T04:05:33.229Z,2.40
2018-02-11T04:08:00.656Z,2.40
2018-02-11T04:10:28.165Z,2.40
2018-02-11T04:12:55.579Z,2.40
2018-02-11T04:15:23.011Z,2.30
2018-02-11T04:17:50.436Z,2.40
2018-02-11T04:20:17.876Z,2.30
2018-02-11T04:22:45.354Z,2.40
2018-02-11T04:25:12.779Z,2.40
2018-02-11T04:27:40.252Z,2.30
2018-02-11T04:30:07.811Z,2.30
2018-02-11T04:32:35.226Z,2.30
2018-02-11T04:35:02.719Z,2.30
2018-02-11T04:37:30.175Z,2.30
2018-02-11T04:39:58.527Z,2.30
2018-02-11T04:42:25.953Z,2.30
2018-02-11T04:44:53.531Z,2.30
2018-02-11T04:47:21.231Z,2.30
2018-02-11T04:49:48.701Z,2.40
2018-02-11T04:52:16.126Z,2.40
2018-02-11T04:54:43.554Z,2.40
2018-02-11T04:57:10.983Z,2.40
2018-02-11T04:59:38.415Z,2.40
2018-02-11T05:02:05.916Z,2.40
2018-02-11T05:04:33.340Z,2.40
2018-02-11T05:07:00.767Z,2.40
2018-02-11T05:09:28.187Z,2.40
2018-02-11T05:11:56.411Z,2.40
2018-02-11T05:14:23.839Z,2.40
2018-02-11T05:16:51.324Z,2.50
2018-02-11T05:19:18.778Z,2.40
2018-02-11T05:21:46.217Z,2.40
2018-02-11T05:24:13.641Z,2.50
2018-02-11T05:26:42.096Z,2.40
2018-02-11T05:29:09.559Z,2.40
2018-02-11T05:31:37.192Z,2.40
2018-02-11T05:34:04.735Z,2.40
2018-02-11T05:36:32.171Z,2.40
2018-02-11T05:38:59.679Z,2.40
2018-02-11T05:41:27.210Z,2.40
2018-02-11T05:43:54.647Z,2.40
2018-02-11T05:46:22.247Z,2.30
2018-02-11T05:48:49.791Z,2.30
2018-02-11T05:51:17.253Z,2.40
2018-02-11T05:53:44.671Z,2.40
2018-02-11T05:56:12.153Z,2.40
2018-02-11T05:58:39.587Z,2.30
2018-02-11T06:01:07.016Z,2.30
2018-02-11T06:03:34.527Z,2.30
2018-02-11T06:06:01.993Z,2.30
2018-02-11T06:08:29.619Z,2.30
2018-02-11T06:10:57.204Z,2.30
2018-02-11T06:13:24.622Z,2.30
2018-02-11T06:15:52.115Z,2.40
2018-02-11T06:18:19.754Z,2.40
2018-02-11T06:20:47.303Z,2.30
2018-02-11T06:23:14.731Z,2.30
2018-02-11T06:25:42.167Z,2.30
2018-02-11T06:28:09.613Z,2.30
2018-02-11T06:30:37.168Z,2.30
2018-02-11T06:33:04.624Z,2.20
2018-02-11T06:35:32.386Z,2.30
2018-02-11T06:37:59.846Z,2.30
2018-02-11T06:40:27.292Z,2.30
2018-02-11T06:42:54.719Z,2.30
2018-02-11T06:45:22.207Z,2.30
2018-02-11T06:47:49.685Z,2.30
2018-02-11T06:50:17.111Z,2.30
2018-02-11T06:52:44.535Z,2.40
2018-02-11T06:55:11.985Z,2.40
2018-02-11T06:57:39.514Z,2.40
2018-02-11T07:00:06.976Z,2.40
2018-02-11T07:02:34.385Z,2.40
2018-02-11T07:05:01.857Z,2.40
2018-02-11T07:07:29.307Z,2.40
2018-02-11T07:09:56.740Z,2.40
2018-02-11T07:12:24.178Z,2.40
2018-02-11T07:14:52.612Z,2.40
2018-02-11T07:17:20.068Z,2.40
2018-02-11T07:19:47.490Z,2.40
2018-02-11T07:22:14.995Z,2.50
2018-02-11T07:24:42.396Z,2.40
2018-02-11T07:27:09.831Z,2.50
2018-02-11T07:29:37.344Z,2.50
2018-02-11T07:32:04.803Z,2.50
2018-02-11T07:34:32.563Z,2.50
2018-02-11T07:37:00.196Z,2.50
2018-02-11T07:39:27.795Z,2.60
2018-02-11T07:41:55.420Z,2.50
2018-02-11T07:44:22.872Z,2.50
2018-02-11T07:46:50.454Z,2.60
2018-02-11T07:49:17.923Z,2.60
2018-02-11T07:51:45.380Z,2.60
2018-02-11T07:54:12.820Z,2.60
2018-02-11T07:56:40.284Z,2.60
2018-02-11T07:59:07.728Z,2.60
2018-02-11T08:01:35.156Z,2.60
2018-02-11T08:04:03.536Z,2.60
2018-02-11T08:06:30.968Z,2.60
2018-02-11T08:08:58.488Z,2.60
2018-02-11T08:11:25.931Z,2.70
2018-02-11T08:13:53.395Z,2.70
2018-02-11T08:16:20.827Z,2.70
2018-02-11T08:18:48.238Z,2.70
2018-02-11T08:21:17.020Z,2.70
2018-02-11T08:23:44.631Z,2.70
2018-02-11T08:26:12.217Z,2.80
2018-02-11T08:28:39.672Z,2.80
2018-02-11T08:31:07.107Z,2.80
2018-02-11T08:33:34.578Z,2.80
2018-02-11T08:36:03.267Z,2.80
2018-02-11T08:38:30.704Z,2.80
2018-02-11T08:40:58.131Z,2.80
2018-02-11T08:43:25.578Z,2.70
2018-02-11T08:45:53.268Z,2.80
2018-02-11T08:48:20.825Z,2.80
2018-02-11T08:50:49.008Z,2.80
2018-02-11T08:53:16.458Z,2.80
2018-02-11T08:55:43.943Z,2.80
2018-02-11T08:58:11.367Z,2.80
2018-02-11T09:00:38.997Z,2.90
2018-02-11T09:03:06.416Z,2.80
2018-02-11T09:05:33.982Z,2.90
2018-02-11T09:08:01.427Z,2.90
2018-02-11T09:10:28.846Z,2.90
2018-02-11T09:12:56.324Z,2.90
2018-02-11T09:15:23.747Z,3.00
2018-02-11T09:17:51.185Z,3.00
2018-02-11T09:20:18.608Z,3.00
2018-02-11T09:22:46.040Z,3.10
2018-02-11T09:25:13.622Z,3.10
2018-02-11T09:27:41.082Z,3.50
2018-02-11T09:30:08.499Z,3.80
2018-02-11T09:32:35.927Z,3.90
2018-02-11T09:35:03.443Z,3.60
2018-02-11T09:37:30.871Z,3.60
2018-02-11T09:39:58.359Z,3.50
2018-02-11T09:42:25.787Z,3.50
2018-02-11T09:44:53.202Z,3.60
2018-02-11T09:47:20.631Z,3.60
2018-02-11T09:49:48.190Z,3.70
2018-02-11T09:52:16.127Z,3.90
2018-02-11T09:54:43.548Z,4.30
2018-02-11T09:57:11.043Z,4.30
2018-02-11T09:59:38.626Z,4.30
2018-02-11T10:02:06.079Z,4.30
2018-02-11T10:04:33.495Z,4.30
2018-02-11T10:07:00.931Z,4.30
2018-02-11T10:09:28.447Z,4.30
2018-02-11T10:11:55.909Z,4.30
2018-02-11T10:14:23.370Z,4.30
2018-02-11T10:16:50.796Z,4.30
2018-02-11T10:19:18.455Z,4.30
2018-02-11T10:21:46.042Z,4.20
2018-02-11T10:24:13.488Z,4.20
2018-02-11T10:26:40.890Z,4.20
2018-02-11T10:29:08.331Z,4.20
2018-02-11T10:31:35.760Z,4.10
2018-02-11T10:34:03.300Z,4.10
2018-02-11T10:36:30.710Z,4.00
2018-02-11T10:38:58.161Z,4.00
2018-02-11T10:41:25.600Z,4.10
2018-02-11T10:43:53.145Z,4.00
2018-02-11T10:46:20.575Z,4.10
2018-02-11T10:48:48.048Z,4.00
2018-02-11T10:51:15.523Z,4.10
2018-02-11T10:53:42.935Z,4.10
2018-02-11T10:56:10.424Z,4.00
2018-02-11T10:58:37.860Z,3.90
2018-02-11T11:01:05.695Z,4.00
2018-02-11T11:03:33.148Z,4.00
2018-02-11T11:06:00.649Z,4.00
2018-02-11T11:08:28.072Z,4.00
2018-02-11T11:10:55.675Z,3.90
2018-02-11T11:13:23.102Z,4.00
2018-02-11T11:15:50.564Z,3.80
2018-02-11T11:18:18.044Z,3.80
2018-02-11T11:20:46.523Z,3.80
2018-02-11T11:23:13.958Z,3.80
2018-02-11T11:25:41.822Z,3.60
2018-02-11T11:28:09.478Z,3.60
2018-02-11T11:30:36.923Z,3.60
2018-02-11T11:33:04.480Z,3.60
2018-02-11T11:35:32.201Z,3.60
2018-02-11T11:37:59.807Z,3.60
2018-02-11T11:40:28.011Z,3.60
2018-02-11T11:42:55.483Z,3.50
2018-02-11T11:45:22.899Z,3.50
2018-02-11T11:47:50.329Z,3.50
2018-02-11T11:50:17.795Z,3.60
2018-02-11T11:52:45.252Z,3.60
2018-02-11T11:55:12.647Z,3.60
2018-02-11T11:57:40.147Z,3.60
2018-02-11T12:00:07.617Z,3.60
2018-02-11T12:02:35.129Z,3.60
2018-02-11T12:05:02.544Z,3.70
2018-02-11T12:07:30.035Z,3.70
2018-02-11T12:10:03.406Z,3.80
2018-02-11T12:12:31.091Z,3.90
2018-02-11T12:14:58.507Z,4.00
2018-02-11T12:17:25.930Z,4.10
2018-02-11T12:19:54.311Z,4.20
2018-02-11T12:22:21.872Z,4.20
2018-02-11T12:24:49.600Z,4.30
2018-02-11T12:27:17.063Z,4.40
2018-02-11T12:29:44.495Z,4.40
2018-02-11T12:32:11.914Z,4.50
2018-02-11T12:34:39.367Z,4.50
2018-02-11T12:37:06.793Z,4.40
2018-02-11T12:39:34.228Z,4.40
2018-02-11T12:42:01.643Z,4.40
2018-02-11T12:44:29.836Z,4.40
2018-02-11T12:46:57.333Z,4.40
2018-02-11T12:49:24.762Z,4.40
2018-02-11T12:51:52.181Z,4.40
2018-02-11T12:54:19.711Z,4.40
2018-02-11T12:56:47.455Z,4.40
2018-02-11T12:59:14.924Z,4.40
2018-02-11T13:01:42.363Z,4.40
2018-02-11T13:04:09.792Z,4.50
2018-02-11T13:06:37.273Z,4.60
2018-02-11T13:09:04.782Z,4.70
2018-02-11T13:11:33.332Z,4.70
2018-02-11T13:14:00.804Z,4.70
2018-02-11T13:16:28.244Z,4.70
2018-02-11T13:18:56.403Z,4.70
2018-02-11T13:21:24.806Z,4.70
2018-02-11T13:23:52.277Z,4.80
2018-02-11T13:26:19.701Z,4.70
2018-02-11T13:28:47.273Z,4.70
2018-02-11T13:31:14.764Z,4.70
2018-02-11T13:33:43.551Z,4.70
2018-02-11T13:36:10.984Z,4.70
2018-02-11T13:38:38.409Z,4.70
2018-02-11T13:41:05.863Z,4.70
2018-02-11T13:43:33.348Z,4.70
2018-02-11T13:46:00.806Z,4.70
2018-02-11T13:48:28.226Z,4.70
2018-02-11T13:50:55.656Z,4.90
2018-02-11T13:53:23.856Z,5.00
2018-02-11T13:55:51.316Z,5.00
2018-02-11T13:58:18.743Z,5.00
2018-02-11T14:00:46.184Z,4.90
2018-02-11T14:03:13.712Z,4.90
2018-02-11T14:05:41.140Z,4.90
2018-02-11T14:08:08.605Z,4.90
2018-02-11T14:10:36.027Z,4.90
2018-02-11T14:13:03.454Z,4.90
2018-02-11T14:15:30.916Z,5.00
2018-02-11T14:17:58.413Z,5.00
2018-02-11T14:20:25.887Z,5.00
2018-02-11T14:22:53.335Z,5.10
2018-02-11T14:25:20.790Z,5.20
2018-02-11T14:27:48.275Z,5.30
2018-02-11T14:30:15.711Z,5.40
2018-02-11T14:32:43.155Z,5.40
2018-02-11T14:35:10.592Z,5.40
2018-02-11T14:37:38.020Z,5.50
2018-02-11T14:40:05.458Z,5.40
2018-02-11T14:42:33.000Z,5.40
2018-02-11T14:45:00.727Z,5.40
2018-02-11T14:47:29.808Z,5.40
2018-02-11T14:49:57.288Z,5.60
2018-02-11T14:52:24.962Z,5.50
2018-02-11T14:54:52.399Z,5.40
2018-02-11T14:57:19.832Z,5.40
2018-02-11T14:59:47.529Z,5.40
2018-02-11T15:02:14.950Z,5.40
2018-02-11T15:04:42.423Z,5.40
2018-02-11T15:07:10.012Z,5.30
2018-02-11T15:09:37.469Z,5.30
2018-02-11T15:12:05.103Z,5.30
2018-02-11T15:14:32.558Z,5.30
2018-02-11T15:17:00.195Z,5.30
2018-02-11T15:19:27.904Z,5.30
2018-02-11T15:21:55.531Z,5.30
2018-02-11T15:24:22.960Z,5.40
2018-02-11T15:26:51.351Z,5.40
2018-02-11T15:29:19.625Z,5.40
2018-02-11T15:31:47.274Z,5.40
2018-02-11T15:34:14.716Z,5.40
2018-02-11T15:36:42.152Z,5.40
2018-02-11T15:39:09.882Z,5.40
2018-02-11T15:41:38.428Z,5.40
2018-02-11T15:44:05.851Z,5.40
2018-02-11T15:46:33.304Z,5.40
2018-02-11T15:49:00.782Z,5.40
2018-02-11T15:51:28.873Z,5.40
2018-02-11T15:53:56.726Z,5.40
2018-02-11T15:56:24.352Z,5.40
2018-02-11T15:58:51.807Z,5.40
2018-02-11T16:01:19.284Z,5.30
2018-02-11T16:03:46.728Z,5.30
2018-02-11T16:06:14.187Z,5.30
2018-02-11T16:08:42.033Z,5.30
2018-02-11T16:11:09.564Z,5.30
2018-02-11T16:13:37.744Z,5.30
2018-02-11T16:16:05.296Z,5.30
2018-02-11T16:18:32.991Z,5.20
2018-02-11T16:21:00.419Z,5.30
2018-02-11T16:23:27.851Z,5.20
2018-02-11T16:25:56.187Z,5.20
2018-02-11T16:28:23.653Z,5.20
2018-02-11T16:30:51.096Z,5.20
2018-02-11T16:33:18.656Z,5.20
2018-02-11T16:35:46.275Z,5.20
2018-02-11T16:38:16.151Z,5.10
2018-02-11T16:40:44.827Z,5.10
2018-02-11T16:43:13.011Z,5.10
2018-02-11T16:45:41.376Z,5.10
2018-02-11T16:48:08.968Z,5.10
2018-02-11T16:50:36.396Z,5.10
2018-02-11T16:53:03.946Z,5.10
2018-02-11T16:55:31.505Z,5.10
2018-02-11T16:57:58.972Z,5.00
2018-02-11T17:00:26.423Z,5.00
2018-02-11T17:02:53.857Z,5.10
2018-02-11T17:05:21.464Z,5.30
2018-02-11T17:07:49.167Z,5.20
2018-02-11T17:10:16.652Z,5.10
2018-02-11T17:12:44.066Z,5.00
2018-02-11T17:15:11.553Z,5.00
2018-02-11T17:17:39.875Z,4.90
2018-02-11T17:20:10.404Z,5.00
2018-02-11T17:22:37.959Z,4.90
2018-02-11T17:25:05.409Z,4.90
2018-02-11T17:27:32.833Z,4.90
2018-02-11T17:30:00.259Z,4.90
2018-02-11T17:32:27.695Z,4.90
2018-02-11T17:34:55.567Z,4.80
2018-02-11T17:37:23.064Z,4.80
2018-02-11T17:39:50.507Z,4.80
2018-02-11T17:42:18.056Z,4.80
2018-02-11T17:44:45.546Z,4.90
2018-02-11T17:47:13.607Z,4.80
2018-02-11T17:49:41.095Z,4.80
2018-02-11T17:52:08.671Z,4.70
2018-02-11T17:54:36.262Z,4.80
2018-02-11T17:57:03.691Z,4.70
2018-02-11T17:59:32.053Z,4.80
2018-02-11T18:01:59.610Z,4.80
2018-02-11T18:04:27.123Z,4.80
2018-02-11T18:06:55.439Z,4.70
2018-02-11T18:09:23.042Z,4.70
2018-02-11T18:11:50.755Z,4.70
2018-02-11T18:14:18.180Z,4.70
2018-02-11T18:16:46.901Z,4.70
2018-02-11T18:19:14.372Z,4.70
2018-02-11T18:21:41.979Z,4.70
2018-02-11T18:24:10.568Z,4.70
2018-02-11T18:26:39.459Z,4.60
2018-02-11T18:29:06.907Z,4.60
2018-02-11T18:31:34.468Z,4.60
2018-02-11T18:34:01.899Z,4.70
2018-02-11T18:36:29.332Z,4.70
2018-02-11T18:38:57.701Z,4.70
2018-02-11T18:41:25.486Z,4.60
2018-02-11T18:43:52.922Z,4.60
2018-02-11T18:46:20.518Z,4.60
2018-02-11T18:48:48.348Z,4.60
2018-02-11T18:51:16.707Z,4.60
2018-02-11T18:53:46.118Z,4.60
2018-02-11T18:56:13.542Z,4.60
2018-02-11T18:58:40.962Z,4.60
2018-02-11T19:01:08.412Z,4.60
2018-02-11T19:03:35.832Z,4.60
2018-02-11T19:06:04.101Z,4.60
2018-02-11T19:08:31.668Z,4.60
2018-02-11T19:10:59.154Z,4.60
2018-02-11T19:13:26.659Z,4.60
2018-02-11T19:15:54.287Z,4.60
2018-02-11T19:18:21.764Z,4.60
2018-02-11T19:20:49.238Z,4.60
2018-02-11T19:23:16.783Z,4.60
2018-02-11T19:25:44.251Z,4.60
2018-02-11T19:28:12.026Z,4.60
2018-02-11T19:30:39.451Z,4.70
2018-02-11T19:33:06.875Z,4.60
2018-02-11T19:35:34.302Z,4.60
2018-02-11T19:38:01.727Z,4.60
2018-02-11T19:40:29.201Z,4.60
2018-02-11T19:42:56.689Z,4.60
2018-02-11T19:45:24.893Z,4.60
2018-02-11T19:47:52.485Z,4.60
2018-02-11T19:50:19.969Z,4.60
2018-02-11T19:52:47.428Z,4.60
2018-02-11T19:55:15.741Z,4.50
2018-02-11T19:57:43.226Z,4.50
2018-02-11T20:00:10.779Z,4.50
2018-02-11T20:02:38.208Z,4.50
2018-02-11T20:05:05.636Z,4.50
2018-02-11T20:07:33.964Z,4.40
2018-02-11T20:10:01.500Z,4.40
2018-02-11T20:12:28.888Z,4.40
2018-02-11T20:14:56.311Z,4.40
2018-02-11T20:17:23.800Z,4.40
2018-02-11T20:19:51.221Z,4.40
2018-02-11T20:22:18.805Z,4.30
2018-02-11T20:24:46.632Z,4.30
2018-02-11T20:27:14.332Z,4.30
2018-02-11T20:29:41.770Z,4.20
2018-02-11T20:32:09.197Z,4.20
2018-02-11T20:34:36.773Z,4.30
2018-02-11T20:37:04.368Z,4.30
2018-02-11T20:39:31.868Z,4.30
2018-02-11T20:41:59.296Z,4.30
2018-02-11T20:44:26.729Z,4.30
2018-02-11T20:46:54.183Z,4.30
2018-02-11T20:49:21.652Z,4.30
2018-02-11T20:51:49.200Z,4.30
2018-02-11T20:54:16.681Z,4.30
2018-02-11T20:56:44.298Z,4.40
2018-02-11T20:59:11.888Z,4.40
2018-02-11T21:01:39.314Z,4.40
2018-02-11T21:04:06.736Z,4.40
2018-02-11T21:06:34.160Z,4.50
2018-02-11T21:09:01.697Z,4.50
2018-02-11T21:11:29.159Z,4.50
2018-02-11T21:13:56.584Z,4.60
2018-02-11T21:16:24.038Z,4.60
2018-02-11T21:18:51.535Z,4.60
2018-02-11T21:21:19.214Z,4.70
2018-02-11T21:23:46.749Z,4.60
2018-02-11T21:26:14.183Z,4.60
2018-02-11T21:28:41.611Z,4.60
2018-02-11T21:31:09.047Z,4.50
2018-02-11T21:33:36.475Z,4.50
2018-02-11T21:36:03.908Z,4.40
2018-02-11T21:38:31.340Z,4.40
2018-02-11T21:40:59.538Z,4.30
2018-02-11T21:43:26.956Z,4.30
2018-02-11T21:45:54.463Z,4.30
2018-02-11T21:48:21.886Z,4.20
2018-02-11T21:50:49.379Z,4.20
2018-02-11T21:53:17.333Z,3.90
2018-02-11T21:55:45.550Z,3.10
2018-02-11T21:58:13.297Z,3.10
2018-02-11T22:00:40.720Z,3.10
2018-02-11T22:03:08.135Z,3.00
2018-02-11T22:05:35.655Z,2.90
2018-02-11T22:08:03.083Z,2.90
2018-02-11T22:10:30.567Z,2.80
2018-02-11T22:12:58.019Z,2.80
2018-02-11T22:15:25.474Z,2.80
2018-02-11T22:17:52.935Z,2.70
2018-02-11T22:20:20.386Z,2.70
2018-02-11T22:22:47.831Z,2.70
2018-02-11T22:25:15.303Z,2.70
2018-02-11T22:27:42.763Z,2.70
2018-02-11T22:30:10.214Z,2.70
2018-02-11T22:32:37.673Z,2.70
2018-02-11T22:35:05.079Z,2.80
2018-02-11T22:37:32.587Z,2.80
2018-02-11T22:40:00.023Z,2.80
2018-02-11T22:42:27.495Z,2.90
2018-02-11T22:44:54.948Z,2.90
2018-02-11T22:47:22.385Z,2.90
2018-02-11T22:49:49.799Z,3.00
2018-02-11T22:52:17.315Z,2.90
2018-02-11T22:54:44.769Z,2.90
2018-02-11T22:57:12.248Z,2.80
2018-02-11T22:59:39.761Z,2.90
2018-02-11T23:02:07.458Z,2.90
2018-02-11T23:04:34.887Z,3.00
2018-02-11T23:07:02.312Z,3.10
2018-02-11T23:09:29.739Z,3.10
2018-02-11T23:11:57.169Z,3.10
2018-02-11T23:14:24.615Z,3.10
2018-02-11T23:16:52.104Z,3.10
2018-02-11T23:19:19.664Z,3.10
2018-02-11T23:21:47.100Z,3.20
2018-02-11T23:24:14.540Z,3.20
2018-02-11T23:26:42.208Z,3.30
2018-02-11T23:29:09.688Z,3.40
2018-02-11T23:31:37.107Z,3.40
2018-02-11T23:34:04.595Z,3.50
2018-02-11T23:36:32.145Z,3.60
2018-02-11T23:38:59.569Z,3.60
2018-02-11T23:41:26.996Z,3.60
2018-02-11T23:43:54.413Z,3.60
2018-02-11T23:46:21.972Z,3.60
2018-02-11T23:48:49.396Z,3.60
2018-02-11T23:51:16.819Z,3.50
2018-02-11T23:53:44.244Z,3.50
2018-02-11T23:56:11.715Z,3.50
2018-02-11T23:58:39.135Z,3.40
